Hayward, WI

5:31 AM CDT on May 29, 2015 (GMT -0500)
Sawyer County | | Change Station
CLOSE
Current Station
Airport
Location: Hayward,
Elevation: 1214 ft
Nearby Weather Stations

Elev 1214 ft 46.02 °N, 91.45 °W | Updated 38 minutes ago

Light Rain
Light Rain
62 °F
Feels Like 62 °F
N
5
Wind Variable Wind from South

Today
High -- | Low -- °F
--% Chance of Precip.
Yesterday
High -- | Low -- °F
Precip. -- in
5:20 AM 8:46 PM
Waxing Gibbous, 82% visible
Pressure 29.90 in
Visibility 10.0 miles
Clouds Mostly Cloudy 4500 ft
Overcast 11000 ft
Dew Point 58 °F
Humidity 86%
Rainfall 0.02 in
Snow Depth Not available.
UV 0 out of 12
Pollen 8.40 out of 12
Air Quality Not available.
Flu Activity Sporadic
METAR KHYR 290953Z AUTO 17004KT 10SM -RA BKN045 OVC110 17/14 A2992 RMK AO2 SLP125 P0002 T01670144

More Conditions Fewer Conditions

Pressure 29.90 in
Visibility 10.0 miles
Clouds Mostly Cloudy 4500 ft
Overcast 11000 ft
Dew Point 58 °F
Humidity 86%
Rainfall 0.02 in
Snow Depth Not available.
UV 0 out of 12
Pollen 8.40 out of 12
Air Quality Not available.
Flu Activity Sporadic
METAR KHYR 290953Z AUTO 17004KT 10SM -RA BKN045 OVC110 17/14 A2992 RMK AO2 SLP125 P0002 T01670144

More Conditions Fewer Conditions

10-Day Weather Forecast

Almanac

Astronomy

May. 29, 2015 Rise Set
Actual Time
Civil Twilight
Nautical Twilight
Astronomical Twilight
Moon
Length of Visible Light
Length of Day
Tomorrow will be .
, % of the Moon is Illuminated

Today's Extremes

State Highs State Lows

Community

WunderPhotos

Upload Photos

1,825,228 photos uploaded!

WunderBlogs® & News

Nearby

Air Quality

  Air Quality AQ Index Pollutant
Not available.

Snow Depth

Station Depth Elevation

Earthquake Activity

City Distance Mag. Time & Date
Minimum magnitude displayed is 2.5.

Coastal Water Temperatures

Place Temperature

Stations

Nearby Weather Stations

Station Location Temp. Windchill Dew Point Humidity Wind Precip. Elev Updated Type